Time;durP1;ratioP1;P1;durP2;ratioP2;P2;SDS_P1;SDS_P2;PMS_P1;PMS_P2;Temp;Humidity;BMP_temperature;BMP_pressure;BME280_temperature;BME280_humidity;BME280_pressure;Samples;Min_cycle;Max_cycle;Signal;HPM_P1;HPM_P2
2022/11/03 00:01:36;;;;;;;15.00;3.35;;;;;;;9.85;94.97;101458.03;5094230;28;20028;-74
2022/11/03 00:04:05;;;;;;;12.25;2.97;;;;;;;9.87;94.62;101453.63;5094520;28;20035;-73
2022/11/03 00:06:31;;;;;;;12.27;3.10;;;;;;;9.83;94.80;101445.00;5094704;28;20107;-73
2022/11/03 00:09:02;;;;;;;12.18;2.85;;;;;;;9.87;94.66;101448.44;5090485;28;20032;-73
2022/11/03 00:11:27;;;;;;;18.00;3.15;;;;;;;9.83;94.87;101438.94;5093982;28;20020;-73
2022/11/03 00:13:53;;;;;;;11.70;3.28;;;;;;;9.85;94.71;101434.59;5093757;28;20042;-73
2022/11/03 00:16:19;;;;;;;12.43;3.08;;;;;;;9.90;94.61;101452.75;5094183;28;20012;-73
2022/11/03 00:18:44;;;;;;;11.38;2.80;;;;;;;9.90;94.89;101435.38;5094453;28;20024;-73
2022/11/03 00:21:12;;;;;;;11.57;2.72;;;;;;;9.87;95.12;101439.75;5094815;28;20032;-73
2022/11/03 00:23:40;;;;;;;12.95;2.95;;;;;;;9.78;94.69;101412.09;5094284;28;20050;-73
2022/11/03 00:26:07;;;;;;;15.70;3.50;;;;;;;9.89;95.03;101425.00;5094582;28;20475;-73
2022/11/03 00:28:33;;;;;;;15.45;3.30;;;;;;;9.87;94.88;101417.19;5092965;28;20555;-74
2022/11/03 00:31:00;;;;;;;18.33;3.97;;;;;;;9.88;95.13;101416.31;5094981;28;20028;-73
2022/11/03 00:33:26;;;;;;;12.98;3.10;;;;;;;9.87;94.77;101416.31;5094473;28;20053;-74
2022/11/03 00:36:01;;;;;;;11.98;2.85;;;;;;;9.95;93.68;101420.56;5092444;28;20102;-73
2022/11/03 00:38:28;;;;;;;12.15;2.72;;;;;;;9.94;94.31;101407.56;5092776;28;20024;-73
2022/11/03 00:40:54;;;;;;;12.00;3.00;;;;;;;9.93;93.83;101400.63;5094571;28;20094;-74
2022/11/03 00:43:21;;;;;;;10.95;2.63;;;;;;;9.97;93.81;101403.19;5093401;28;20032;-74
2022/11/03 00:45:46;;;;;;;11.75;2.85;;;;;;;9.97;93.56;101394.50;5093837;28;20386;-73
2022/11/03 00:48:30;;;;;;;14.57;3.25;;;;;;;9.90;94.32;101387.66;5091375;28;20043;-73
2022/11/03 00:51:02;;;;;;;14.68;3.10;;;;;;;9.93;94.27;101391.06;5092942;28;20036;-73
2022/11/03 00:53:29;;;;;;;18.60;3.08;;;;;;;9.93;94.00;101385.88;5093868;28;20058;-73
2022/11/03 00:55:54;;;;;;;11.85;2.45;;;;;;;9.97;94.18;101377.16;5092039;28;20024;-73
2022/11/03 00:58:20;;;;;;;14.00;3.42;;;;;;;10.02;94.10;101377.94;5091922;28;20165;-74
2022/11/03 01:00:45;;;;;;;13.13;2.60;;;;;;;10.02;93.84;101370.13;5093388;28;20017;-74
2022/11/03 01:03:11;;;;;;;10.75;3.22;;;;;;;10.05;93.65;101370.09;5093663;28;20106;-74
2022/11/03 01:08:32;;;;;;;9.45;2.63;;;;;;;10.08;93.85;101364.84;5082122;28;20051;-74
2022/11/03 01:13:57;;;;;;;16.42;3.30;;;;;;;10.13;93.82;101358.69;5094111;28;20558;-73
2022/11/03 01:16:22;;;;;;;11.60;2.63;;;;;;;10.11;93.37;101350.06;5091100;28;20103;-73
2022/11/03 01:18:48;;;;;;;12.93;2.72;;;;;;;10.10;93.79;101343.97;5092537;28;20030;-74
2022/11/03 01:21:14;;;;;;;12.73;2.88;;;;;;;10.15;93.19;101352.59;5093633;28;20451;-73
2022/11/03 01:23:39;;;;;;;12.82;3.20;;;;;;;10.17;93.72;101335.22;5094005;28;20455;-73
2022/11/03 01:26:07;;;;;;;15.48;2.72;;;;;;;10.23;93.56;101355.09;5092205;28;20046;-73
2022/11/03 01:28:34;;;;;;;11.77;3.45;;;;;;;10.20;93.20;101342.09;5093208;28;20356;-73
2022/11/03 01:31:08;;;;;;;15.70;2.83;;;;;;;10.19;92.98;101341.25;5092958;28;20038;-73
2022/11/03 01:33:33;;;;;;;9.45;3.10;;;;;;;10.21;93.12;101338.63;5091229;28;20036;-73
2022/11/03 01:35:59;;;;;;;13.43;3.10;;;;;;;10.21;93.25;101330.81;5092948;28;20127;-73
2022/11/03 01:38:24;;;;;;;13.55;2.92;;;;;;;10.20;93.40;101339.50;5093231;28;20486;-73
2022/11/03 01:40:49;;;;;;;12.18;3.00;;;;;;;10.17;93.28;101335.22;5092145;28;20024;-73
2022/11/03 01:43:21;;;;;;;11.60;3.40;;;;;;;10.13;93.92;101317.88;5092961;28;20420;-73
2022/11/03 01:45:49;;;;;;;14.63;3.10;;;;;;;10.15;93.52;101317.88;5090605;28;20035;-73
2022/11/03 01:48:17;;;;;;;14.48;3.05;;;;;;;10.15;94.08;101317.88;5091427;28;20035;-73
2022/11/03 01:50:44;;;;;;;13.65;2.53;;;;;;;9.98;93.90;101277.28;5092629;28;20040;-73
2022/11/03 01:53:11;;;;;;;11.57;3.45;;;;;;;10.11;94.57;101308.38;5091920;28;20039;-74
2022/11/03 01:55:40;;;;;;;11.18;2.78;;;;;;;10.08;94.24;101302.31;5095516;28;20028;-73
2022/11/03 01:58:20;;;;;;;12.63;2.90;;;;;;;10.00;94.67;101296.34;5113589;28;20018;-73
2022/11/03 02:00:48;;;;;;;13.52;2.72;;;;;;;10.03;95.00;101287.63;5098019;28;20024;-74
2022/11/03 02:03:14;;;;;;;11.57;3.33;;;;;;;10.12;94.86;101297.06;5113086;28;20016;-73
2022/11/03 02:05:43;;;;;;;15.07;3.20;;;;;;;10.15;94.92;101291.81;5101414;28;20075;-73
2022/11/03 02:08:14;;;;;;;9.65;2.75;;;;;;;10.17;94.73;101293.50;5084736;28;20462;-73
2022/11/03 02:10:39;;;;;;;10.65;2.38;;;;;;;10.20;94.55;101290.88;5113666;28;20031;-73
2022/11/03 02:13:14;;;;;;;11.70;2.83;;;;;;;10.29;94.35;101290.75;5112971;28;20027;-73
2022/11/03 02:15:39;;;;;;;18.02;2.78;;;;;;;10.30;93.66;101282.06;5100448;28;20043;-73
2022/11/03 02:18:06;;;;;;;10.18;2.53;;;;;;;10.33;93.59;101283.72;5111300;28;20364;-73
2022/11/03 02:20:33;;;;;;;17.05;3.05;;;;;;;10.28;94.07;101273.38;5113051;28;20027;-73
2022/11/03 02:23:13;;;;;;;10.40;2.80;;;;;;;10.28;93.81;101283.81;5112178;28;20022;-73
2022/11/03 02:25:45;;;;;;;13.93;2.95;;;;;;;10.26;94.35;101271.69;5099177;28;20304;-73
2022/11/03 02:28:14;;;;;;;13.50;3.45;;;;;;;10.19;94.77;101267.44;5109370;28;20019;-74
2022/11/03 02:31:17;;;;;;;9.50;2.78;;;;;;;10.15;94.30;101264.00;5113170;28;20024;-73
2022/11/03 02:33:53;;;;;;;9.80;3.25;;;;;;;10.20;94.37;101263.94;5107130;28;20479;-73
2022/11/03 02:36:37;;;;;;;11.77;2.75;;;;;;;10.17;94.83;101253.53;5095728;28;20035;-73
2022/11/03 02:39:08;;;;;;;11.73;2.58;;;;;;;10.16;94.75;101249.22;5113081;28;20024;-73
2022/11/03 02:41:36;;;;;;;17.42;3.22;;;;;;;10.15;94.81;101239.69;5112445;28;20032;-73
2022/11/03 02:44:03;;;;;;;13.40;3.30;;;;;;;10.16;95.02;101241.41;5112430;28;20020;-73
2022/11/03 02:46:31;;;;;;;9.77;2.63;;;;;;;10.14;95.25;101238.00;5094505;28;20036;-73
2022/11/03 02:48:56;;;;;;;12.88;3.70;;;;;;;10.07;95.63;101214.63;5095759;28;20040;-73
2022/11/03 02:51:23;;;;;;;10.30;2.65;;;;;;;10.09;95.81;101228.47;5111925;28;20039;-74
2022/11/03 02:54:02;;;;;;;11.45;2.88;;;;;;;10.06;95.61;101222.47;5098037;28;20031;-73
2022/11/03 02:56:30;;;;;;;15.05;3.70;;;;;;;10.05;96.24;101218.16;5090615;28;20117;-74
2022/11/03 02:59:05;;;;;;;12.57;2.30;;;;;;;10.11;96.19;101230.22;5089112;28;20026;-73
2022/11/03 03:01:51;;;;;;;12.10;2.60;;;;;;;10.13;96.04;101212.81;5092150;28;20495;-73
2022/11/03 03:04:32;;;;;;;18.63;3.15;;;;;;;10.17;95.89;101222.28;5091322;28;20029;-73
2022/11/03 03:07:01;;;;;;;12.18;2.83;;;;;;;10.07;96.35;101198.13;5088718;28;20082;-73
2022/11/03 03:09:34;;;;;;;12.38;3.28;;;;;;;10.17;96.16;101201.44;5091211;28;20408;-73
2022/11/03 03:12:02;;;;;;;11.15;3.08;;;;;;;10.14;96.23;101191.09;5090806;28;20060;-73
2022/11/03 03:14:33;;;;;;;11.30;2.45;;;;;;;10.16;96.64;101194.53;5092029;28;20030;-73
2022/11/03 03:17:01;;;;;;;10.35;2.78;;;;;;;10.17;96.79;101191.91;5092281;28;20107;-73
2022/11/03 03:19:37;;;;;;;12.82;3.05;;;;;;;10.18;96.97;101195.38;5091037;28;20379;-73
2022/11/03 03:22:13;;;;;;;10.90;2.88;;;;;;;10.14;96.40;101178.06;5090805;28;20067;-73
2022/11/03 03:24:52;;;;;;;10.80;3.00;;;;;;;10.20;96.29;101183.16;5091569;28;20035;-73
2022/11/03 03:27:20;;;;;;;12.32;2.80;;;;;;;10.15;96.24;101170.22;5094435;28;20039;-73
2022/11/03 03:29:53;;;;;;;12.00;3.00;;;;;;;10.19;96.76;101181.44;5096105;28;20028;-73
2022/11/03 03:32:23;;;;;;;12.90;2.60;;;;;;;10.18;96.24;101177.13;5093653;28;20024;-73
2022/11/03 03:34:50;;;;;;;13.82;3.15;;;;;;;10.21;96.19;101175.31;5095708;28;20016;-74
2022/11/03 03:37:18;;;;;;;12.80;3.28;;;;;;;10.20;96.47;101172.72;5095720;28;20030;-74
2022/11/03 03:39:47;;;;;;;17.30;3.13;;;;;;;10.08;96.98;101161.63;5095075;28;20028;-74
2022/11/03 03:42:14;;;;;;;15.57;3.00;;;;;;;10.07;97.24;101157.31;5093168;28;20039;-74
2022/11/03 03:44:42;;;;;;;11.52;3.05;;;;;;;10.16;97.51;101164.09;5096045;28;20024;-73
2022/11/03 03:47:23;;;;;;;11.07;2.97;;;;;;;10.15;97.04;101164.16;5094735;28;20051;-73
2022/11/03 03:49:48;;;;;;;11.05;2.42;;;;;;;10.16;97.74;101158.91;5095835;28;20020;-74
2022/11/03 03:52:14;;;;;;;18.20;3.08;;;;;;;10.11;97.83;101152.06;5094158;28;20361;-74
2022/11/03 03:54:40;;;;;;;11.18;2.53;;;;;;;10.14;97.95;101139.00;5094771;28;20028;-73
2022/11/03 03:57:14;;;;;;;14.25;3.08;;;;;;;10.11;97.95;101118.19;5095875;28;20028;-73
2022/11/03 03:59:39;;;;;;;10.55;2.60;;;;;;;10.17;98.76;101136.31;5115250;28;20030;-73
2022/11/03 04:02:05;;;;;;;16.38;3.25;;;;;;;10.18;98.33;101133.69;5101258;28;20036;-73
2022/11/03 04:04:30;;;;;;;9.60;3.03;;;;;;;10.20;98.49;101129.31;5104056;28;20024;-73
2022/11/03 04:09:39;;;;;;;;;;;;;;;10.27;97.84;101135.31;5116280;28;20383;-73
2022/11/03 04:23:02;;;;;;;;;;;;;;;10.36;97.97;101129.91;5102925;28;20050;-74
2022/11/03 04:25:27;;;;;;;11.77;2.83;;;;;;;10.30;98.55;101123.09;5115108;28;19907;-74
2022/11/03 04:27:53;;;;;;;13.55;2.90;;;;;;;10.22;98.94;101100.63;5113736;28;20020;-73
2022/11/03 04:30:20;;;;;;;10.48;3.10;;;;;;;10.31;99.77;101121.34;5105942;28;20364;-74
2022/11/03 04:32:48;;;;;;;12.55;3.22;;;;;;;10.29;99.75;101104.88;5099266;28;20034;-74
2022/11/03 04:35:18;;;;;;;10.00;3.05;;;;;;;10.29;99.96;101099.66;5114025;28;20058;-74
2022/11/03 04:37:49;;;;;;;9.52;2.50;;;;;;;10.30;99.87;101112.66;5115084;27;20055;-74
2022/11/03 04:40:16;;;;;;;14.10;3.08;;;;;;;10.28;100.00;101105.75;5114861;28;20054;-73
2022/11/03 04:42:43;;;;;;;12.55;2.63;;;;;;;10.26;100.00;101097.09;5097797;28;20032;-74
2022/11/03 04:45:32;;;;;;;11.75;3.08;;;;;;;10.27;100.00;101099.69;5115206;28;20023;-73
2022/11/03 04:48:01;;;;;;;15.95;3.28;;;;;;;10.27;100.00;101091.03;5106709;28;20105;-74
2022/11/03 04:50:26;;;;;;;12.05;2.95;;;;;;;10.33;100.00;101098.69;5107258;28;20081;-74
2022/11/03 04:52:57;;;;;;;12.32;2.72;;;;;;;10.36;100.00;101093.44;5111537;28;20039;-73
2022/11/03 04:55:22;;;;;;;14.75;3.05;;;;;;;10.30;100.00;101080.53;5114450;28;20111;-73
2022/11/03 04:57:54;;;;;;;11.20;2.70;;;;;;;10.34;100.00;101089.16;5114046;28;20118;-74
2022/11/03 05:00:19;;;;;;;13.95;3.00;;;;;;;10.37;100.00;101084.75;5080057;28;20020;-73
2022/11/03 05:02:47;;;;;;;12.27;3.10;;;;;;;10.38;100.00;101076.03;5091256;28;20028;-74
2022/11/03 05:05:24;;;;;;;10.93;3.05;;;;;;;10.32;100.00;101076.16;5096441;28;20028;-73
2022/11/03 05:07:52;;;;;;;14.00;3.55;;;;;;;10.35;100.00;101077.84;5114832;28;20027;-73
2022/11/03 05:10:23;;;;;;;10.98;3.03;;;;;;;10.32;100.00;101068.31;5113480;28;20387;-73
2022/11/03 05:12:49;;;;;;;11.80;2.75;;;;;;;10.35;100.00;101065.66;5106096;28;20085;-73
2022/11/03 05:15:44;;;;;;;12.05;2.80;;;;;;;10.33;100.00;101064.81;5114113;28;20027;-73
2022/11/03 05:18:17;;;;;;;10.43;2.80;;;;;;;10.31;100.00;101050.97;5100319;28;20032;-73
2022/11/03 05:20:59;;;;;;;14.48;2.80;;;;;;;10.23;100.00;101031.97;5113242;28;20215;-73
2022/11/03 05:23:29;;;;;;;12.77;3.43;;;;;;;10.37;100.00;101047.41;5106513;28;20088;-74
2022/11/03 05:25:57;;;;;;;15.55;4.07;;;;;;;10.45;100.00;101046.34;5113355;28;20063;-74
2022/11/03 05:28:30;;;;;;;8.77;3.15;;;;;;;10.44;100.00;101031.63;5113809;28;20524;-74
2022/11/03 05:30:56;;;;;;;;;;;;;;;10.49;100.00;101032.34;5103827;28;20504;-73
2022/11/03 05:33:26;;;;;;;15.75;3.20;;;;;;;10.48;100.00;101022.84;5102408;28;19923;-73
2022/11/03 05:35:51;;;;;;;14.23;3.40;;;;;;;10.53;100.00;101022.75;5113999;28;20348;-74
2022/11/03 05:38:19;;;;;;;10.70;2.78;;;;;;;10.56;100.00;101020.06;5112938;28;20031;-74
2022/11/03 05:40:45;;;;;;;15.02;3.60;;;;;;;10.58;100.00;101030.47;5113772;28;20051;-74
2022/11/03 05:43:13;;;;;;;12.07;2.80;;;;;;;10.55;100.00;101020.97;5102708;28;20390;-74
2022/11/03 05:45:38;;;;;;;14.98;3.08;;;;;;;10.52;100.00;101019.28;5100622;27;20060;-73
2022/11/03 05:48:21;;;;;;;12.50;3.03;;;;;;;10.47;100.00;101008.09;5113046;28;20071;-73
2022/11/03 05:50:46;;;;;;;12.63;2.70;;;;;;;10.49;100.00;101013.25;5113192;28;20035;-73
2022/11/03 05:53:27;;;;;;;13.30;3.08;;;;;;;10.45;100.00;101007.25;5100441;28;20136;-74
2022/11/03 05:55:53;;;;;;;12.02;2.53;;;;;;;10.47;100.00;101000.28;5113951;28;20061;-74
2022/11/03 05:58:26;;;;;;;13.77;2.97;;;;;;;10.53;100.00;100992.34;5113306;28;20545;-73
2022/11/03 06:00:52;;;;;;;7.55;2.83;;;;;;;10.52;100.00;100990.59;5113111;28;20036;-74
2022/11/03 06:03:23;;;;;;;13.23;3.00;;;;;;;10.57;100.00;100992.28;5099342;28;20060;-74
2022/11/03 06:05:49;;;;;;;10.30;3.40;;;;;;;10.58;100.00;100993.97;5105450;28;20062;-73
2022/11/03 06:08:20;;;;;;;12.90;3.47;;;;;;;10.52;100.00;100977.56;5112595;28;20051;-73
2022/11/03 06:10:49;;;;;;;13.63;3.20;;;;;;;10.51;100.00;100983.69;5113470;28;20134;-73
2022/11/03 06:13:25;;;;;;;12.82;3.13;;;;;;;10.52;100.00;100974.09;5094413;28;20032;-73
2022/11/03 06:15:57;;;;;;;12.70;3.35;;;;;;;10.52;100.00;100976.72;5086591;28;20356;-74
2022/11/03 06:18:28;;;;;;;12.80;3.63;;;;;;;10.46;100.00;100967.28;5112856;28;20027;-73
2022/11/03 06:20:56;;;;;;;10.95;3.60;;;;;;;10.41;100.00;100966.50;5112689;28;20024;-73
2022/11/03 06:23:22;;;;;;;10.55;2.72;;;;;;;10.51;100.00;100964.56;5108665;28;20034;-73
2022/11/03 06:25:50;;;;;;;16.48;3.25;;;;;;;10.49;100.00;100954.16;5113025;28;20463;-73
2022/11/03 06:28:23;;;;;;;13.45;2.70;;;;;;;10.57;100.00;100961.00;5112168;28;20020;-74
2022/11/03 06:30:49;;;;;;;9.77;3.03;;;;;;;10.57;100.00;100966.19;5112893;28;20019;-73
2022/11/03 06:33:24;;;;;;;10.27;2.92;;;;;;;10.57;100.00;100953.16;5105831;28;20147;-74
2022/11/03 06:35:52;;;;;;;13.30;4.03;;;;;;;10.60;100.00;100956.56;5112316;28;20030;-74
2022/11/03 06:38:26;;;;;;;11.75;2.88;;;;;;;10.50;100.00;100945.47;5112262;28;20115;-74
2022/11/03 06:40:52;;;;;;;11.55;3.00;;;;;;;10.59;100.00;100953.97;5106351;28;20106;-74
2022/11/03 06:43:27;;;;;;;13.30;3.63;;;;;;;10.64;100.00;100957.34;5104938;28;20023;-73
2022/11/03 06:46:04;;;;;;;16.27;2.97;;;;;;;10.64;100.00;100955.59;5113105;28;20111;-73
2022/11/03 06:48:33;;;;;;;10.40;3.15;;;;;;;10.64;100.00;100949.53;5111794;28;20059;-73
2022/11/03 06:51:00;;;;;;;11.57;3.10;;;;;;;10.64;100.00;100950.38;5112835;28;20089;-73
2022/11/03 06:53:30;;;;;;;14.65;2.80;;;;;;;10.65;100.00;100948.63;5102443;28;20531;-73
2022/11/03 06:55:55;;;;;;;11.27;3.13;;;;;;;10.67;100.00;100950.31;5111883;28;20024;-73
2022/11/03 06:58:31;;;;;;;15.43;3.17;;;;;;;10.65;100.00;100940.81;5112661;28;20062;-73
2022/11/03 07:01:00;;;;;;;9.65;2.90;;;;;;;10.62;100.00;100943.47;5107666;28;20020;-73
2022/11/03 07:03:32;;;;;;;12.07;3.22;;;;;;;10.68;100.00;100941.59;5095207;28;20057;-74
2022/11/03 07:06:23;;;;;;;12.25;2.70;;;;;;;10.72;100.00;100944.97;5116843;28;20471;-73
2022/11/03 07:08:54;;;;;;;10.95;3.00;;;;;;;10.75;100.00;100939.69;5114569;28;20423;-74
2022/11/03 07:11:24;;;;;;;11.63;3.20;;;;;;;10.71;100.00;100927.63;5115854;28;20027;-74
2022/11/03 07:14:13;;;;;;;16.40;2.80;;;;;;;10.78;100.00;100924.84;5102009;28;20020;-74
2022/11/03 07:16:49;;;;;;;12.15;2.65;;;;;;;10.83;100.00;100916.06;5114718;28;20027;-74
2022/11/03 07:19:16;;;;;;;17.63;4.38;;;;;;;10.87;100.00;100923.78;5116646;28;20026;-74
2022/11/03 07:22:02;;;;;;;10.43;2.70;;;;;;;10.91;100.00;100924.56;5116568;28;20025;-74
2022/11/03 07:24:39;;;;;;;13.30;3.35;;;;;;;10.87;100.00;100907.28;5084671;28;20032;-73
2022/11/03 07:27:15;;;;;;;7.03;2.75;;;;;;;10.98;100.00;100915.69;5098721;28;20039;-73
2022/11/03 07:29:42;;;;;;;11.68;3.08;;;;;;;11.00;100.00;100906.09;5115013;28;20038;-73
2022/11/03 07:32:29;;;;;;;10.27;2.97;;;;;;;11.05;100.00;100896.38;5110174;28;20023;-72
2022/11/03 07:35:11;;;;;;;8.27;3.00;;;;;;;11.07;100.00;100893.75;5116442;27;20039;-74
2022/11/03 07:37:36;;;;;;;11.98;3.00;;;;;;;11.10;100.00;100896.28;5115332;28;20016;-74
2022/11/03 07:40:02;;;;;;;10.15;2.65;;;;;;;11.09;100.00;100891.97;5108509;28;20463;-73
2022/11/03 07:42:27;;;;;;;9.43;2.45;;;;;;;11.15;100.00;100902.22;5106664;28;20020;-73
2022/11/03 07:44:55;;;;;;;7.85;2.70;;;;;;;11.20;99.05;100905.59;5111605;28;20032;-74
2022/11/03 07:47:24;;;;;;;9.90;3.40;;;;;;;11.25;98.68;100906.34;5094830;28;20148;-74
2022/11/03 07:49:50;;;;;;;14.18;2.85;;;;;;;11.23;98.91;100906.38;5101075;28;20028;-74
2022/11/03 07:52:19;;;;;;;11.50;2.78;;;;;;;11.28;99.22;100916.72;5114856;28;20035;-74
2022/11/03 07:54:45;;;;;;;8.35;2.63;;;;;;;11.28;99.10;100921.06;5116063;27;20355;-74
2022/11/03 07:57:19;;;;;;;11.25;2.45;;;;;;;11.30;98.62;100908.84;5115574;28;20019;-73
2022/11/03 07:59:47;;;;;;;14.18;2.78;;;;;;;11.33;98.58;100914.84;5094162;28;20073;-73
2022/11/03 08:02:30;;;;;;;13.32;3.53;;;;;;;11.38;98.39;100907.75;5103012;28;20070;-73
2022/11/03 08:04:57;;;;;;;11.17;3.07;;;;;;;11.28;98.74;100885.41;5105480;28;20112;-73
2022/11/03 08:07:22;;;;;;;9.90;2.25;;;;;;;11.44;98.16;100904.09;5096836;28;20035;-73
2022/11/03 08:09:47;;;;;;;10.95;2.60;;;;;;;11.46;97.36;100887.50;5107225;28;20081;-73
2022/11/03 08:12:13;;;;;;;7.07;2.55;;;;;;;11.52;96.83;100885.66;5100886;28;20417;-73
2022/11/03 08:14:38;;;;;;;7.45;2.58;;;;;;;11.54;96.96;100881.22;5105432;28;20043;-74
2022/11/03 08:17:03;;;;;;;8.90;2.30;;;;;;;11.57;96.74;100883.75;5112397;28;20069;-73
2022/11/03 08:19:29;;;;;;;7.10;2.60;;;;;;;11.59;96.07;100872.38;5107988;28;20032;-73
2022/11/03 08:21:55;;;;;;;13.13;3.22;;;;;;;11.59;96.35;100855.88;5110836;28;20024;-73
2022/11/03 08:24:20;;;;;;;8.73;2.80;;;;;;;11.62;95.74;100847.94;5092493;28;20051;-73
2022/11/03 08:26:45;;;;;;;10.63;2.72;;;;;;;11.71;95.85;100850.31;5095964;28;20024;-73
2022/11/03 08:29:11;;;;;;;8.90;3.22;;;;;;;11.75;95.16;100846.69;5097221;28;20372;-74
2022/11/03 08:31:36;;;;;;;13.00;2.88;;;;;;;11.79;94.88;100837.88;5111116;28;20023;-73
2022/11/03 08:34:01;;;;;;;10.13;2.85;;;;;;;11.86;94.15;100836.81;5097901;28;20035;-71
2022/11/03 08:36:26;;;;;;;10.98;3.30;;;;;;;11.88;93.79;100826.34;5111192;28;20081;-74
2022/11/03 08:38:52;;;;;;;10.05;2.90;;;;;;;11.95;93.67;100831.34;5109226;28;20039;-74
2022/11/03 08:41:17;;;;;;;12.18;2.55;;;;;;;12.01;93.40;100816.41;5110585;28;20032;-73
2022/11/03 08:43:42;;;;;;;8.15;2.40;;;;;;;12.03;92.74;100789.28;5104822;28;20028;-74
2022/11/03 08:46:08;;;;;;;10.70;2.95;;;;;;;12.13;93.46;100790.75;5109807;28;20058;-74
2022/11/03 08:48:33;;;;;;;7.13;2.35;;;;;;;12.18;92.54;100782.75;5103155;28;20118;-73
2022/11/03 08:50:58;;;;;;;8.85;2.85;;;;;;;12.25;92.31;100779.03;5115049;28;20405;-74
2022/11/03 08:53:25;;;;;;;10.88;2.80;;;;;;;12.32;91.71;100780.56;5098674;28;20028;-74
2022/11/03 08:55:53;;;;;;;8.40;2.78;;;;;;;12.39;90.71;100776.00;5107597;28;20030;-74
2022/11/03 08:58:20;;;;;;;9.35;2.13;;;;;;;12.46;89.89;100764.47;5114635;28;20110;-74
2022/11/03 09:00:45;;;;;;;9.68;2.47;;;;;;;12.59;90.13;100762.31;5114666;28;20030;-74
2022/11/03 09:03:10;;;;;;;8.55;3.17;;;;;;;12.68;88.19;100748.88;5097556;28;20024;-73
2022/11/03 09:05:36;;;;;;;8.52;2.38;;;;;;;12.63;88.97;100722.91;5096340;28;20020;-74
2022/11/03 09:08:01;;;;;;;5.70;2.22;;;;;;;12.71;87.67;100714.78;5104583;28;20096;-74
2022/11/03 09:10:26;;;;;;;8.57;2.78;;;;;;;12.83;87.56;100724.84;5106024;28;20062;-74
2022/11/03 09:12:53;;;;;;;8.57;2.83;;;;;;;12.87;87.90;100721.19;5103470;28;20202;-74
2022/11/03 09:15:18;;;;;;;6.63;2.10;;;;;;;12.88;86.49;100715.06;5109846;28;20027;-74
2022/11/03 09:17:43;;;;;;;7.60;2.58;;;;;;;12.95;85.23;100712.22;5113642;28;20454;-74
2022/11/03 09:20:09;;;;;;;7.22;2.80;;;;;;;12.97;86.71;100699.94;5112210;28;20030;-74
2022/11/03 09:22:35;;;;;;;11.38;2.45;;;;;;;13.00;85.92;100681.53;5113486;28;20023;-74
2022/11/03 09:25:01;;;;;;;9.60;2.40;;;;;;;12.99;86.26;100666.75;5099033;28;20076;-74
2022/11/03 09:27:26;;;;;;;12.30;2.33;;;;;;;13.09;84.69;100674.19;5103883;28;20074;-74
2022/11/03 09:29:51;;;;;;;8.98;2.15;;;;;;;13.10;85.21;100661.94;5109794;28;20024;-74
2022/11/03 09:32:17;;;;;;;10.38;2.40;;;;;;;13.14;84.50;100666.16;5111864;28;20103;-74
2022/11/03 09:34:43;;;;;;;9.38;2.80;;;;;;;13.19;85.02;100663.38;5101836;28;20523;-74
2022/11/03 09:37:09;;;;;;;6.63;2.55;;;;;;;13.17;84.79;100654.72;5101683;28;20118;-73
2022/11/03 09:39:34;;;;;;;10.48;3.10;;;;;;;13.18;84.12;100644.22;5105515;28;20372;-74
2022/11/03 09:42:02;;;;;;;6.95;2.03;;;;;;;13.21;84.37;100643.22;5099347;27;20103;-73
2022/11/03 09:44:27;;;;;;;5.70;2.85;;;;;;;13.22;83.81;100643.19;5110902;28;20051;-73
2022/11/03 09:46:53;;;;;;;8.52;2.20;;;;;;;13.19;84.13;100632.81;5114027;28;20019;-73
2022/11/03 09:49:19;;;;;;;8.20;2.00;;;;;;;13.19;83.90;100631.97;5101256;28;20075;-73
2022/11/03 09:51:45;;;;;;;7.88;2.30;;;;;;;13.11;84.36;100627.00;5113129;28;20026;-73
2022/11/03 09:54:13;;;;;;;9.85;2.38;;;;;;;13.06;83.93;100627.19;5099482;28;20024;-73
2022/11/03 09:56:39;;;;;;;6.43;2.08;;;;;;;13.01;83.33;100612.56;5111924;28;20040;-73
2022/11/03 09:59:16;;;;;;;4.47;1.88;;;;;;;13.03;85.07;100618.59;5100186;28;20032;-73
2022/11/03 10:01:44;;;;;;;10.27;2.60;;;;;;;12.99;83.48;100604.78;5090877;28;20080;-74
2022/11/03 10:04:11;;;;;;;8.02;2.92;;;;;;;13.02;84.37;100616.91;5103536;28;20032;-73
2022/11/03 10:06:38;;;;;;;13.80;2.88;;;;;;;12.99;84.63;100607.41;5107542;28;20051;-72
2022/11/03 10:09:03;;;;;;;8.27;2.35;;;;;;;12.99;84.89;100606.56;5095105;28;20028;-73
2022/11/03 10:11:30;;;;;;;7.88;2.47;;;;;;;12.95;85.16;100600.59;5104451;28;20039;-72
2022/11/03 10:13:56;;;;;;;6.95;2.40;;;;;;;12.92;84.10;100599.84;5101143;28;20459;-72
2022/11/03 10:16:23;;;;;;;8.63;2.85;;;;;;;12.88;84.24;100592.09;5104058;28;20024;-73
2022/11/03 10:18:49;;;;;;;9.90;2.70;;;;;;;12.81;84.45;100579.28;5113134;28;20019;-72
2022/11/03 10:21:26;;;;;;;9.80;2.47;;;;;;;12.85;84.72;100581.75;5112357;28;20532;-72
2022/11/03 10:23:51;;;;;;;9.98;2.67;;;;;;;12.85;85.48;100580.88;5113151;28;20029;-73
2022/11/03 10:26:18;;;;;;;12.73;2.80;;;;;;;12.86;84.72;100580.00;5109945;28;20019;-72
2022/11/03 10:29:02;;;;;;;8.50;3.15;;;;;;;12.92;84.60;100560.59;5107835;28;20414;-72
2022/11/03 10:31:40;;;;;;;;;;;;;;;13.00;84.65;100571.63;5112315;28;20030;-72
2022/11/03 10:34:22;;;;;;;13.68;3.15;;;;;;;13.12;83.33;100561.53;5111980;28;19972;-72
2022/11/03 10:36:48;;;;;;;7.47;2.25;;;;;;;13.29;82.15;100560.91;5112397;28;20042;-72
2022/11/03 10:39:28;;;;;;;6.15;2.58;;;;;;;13.43;81.69;100551.66;5112849;28;20024;-73
2022/11/03 10:41:58;;;;;;;5.30;2.20;;;;;;;13.58;80.93;100551.06;5102961;28;20155;-74
2022/11/03 10:44:25;;;;;;;8.48;2.50;;;;;;;13.74;79.57;100560.00;5105597;28;20388;-73
2022/11/03 10:46:57;;;;;;;7.18;2.95;;;;;;;13.90;79.83;100541.88;5102806;28;20035;-73
2022/11/03 10:49:23;;;;;;;11.75;2.28;;;;;;;14.00;78.05;100544.97;5097033;28;20047;-73
2022/11/03 10:51:51;;;;;;;6.45;2.28;;;;;;;14.03;77.80;100535.19;5099752;28;20027;-73
2022/11/03 10:54:20;;;;;;;7.25;2.65;;;;;;;14.10;77.31;100530.53;5092531;28;20463;-73
2022/11/03 10:56:46;;;;;;;7.65;2.75;;;;;;;14.16;76.57;100534.66;5100065;28;20122;-74
2022/11/03 10:59:17;;;;;;;7.53;2.25;;;;;;;14.27;77.94;100535.88;5100930;28;20109;-73
2022/11/03 11:01:42;;;;;;;8.50;2.60;;;;;;;14.40;77.99;100527.50;5085088;28;20024;-73
2022/11/03 11:04:19;;;;;;;6.55;2.70;;;;;;;14.47;76.09;100515.81;5104916;28;20020;-72
2022/11/03 11:06:45;;;;;;;9.05;2.88;;;;;;;14.51;74.53;100514.78;5100044;28;20025;-73
2022/11/03 11:09:14;;;;;;;8.23;2.92;;;;;;;14.53;74.30;100510.31;5096544;28;20039;-73
2022/11/03 11:12:04;;;;;;;7.10;2.15;;;;;;;14.49;75.48;100506.09;5100636;28;20028;-73
2022/11/03 11:14:33;;;;;;;4.57;1.92;;;;;;;14.47;74.11;100511.41;5112484;28;20383;-73
2022/11/03 11:16:59;;;;;;;8.77;2.53;;;;;;;14.45;74.31;100501.91;5100802;28;20490;-73
2022/11/03 11:19:26;;;;;;;8.07;2.45;;;;;;;14.49;74.81;100499.09;5103965;28;20028;-73
2022/11/03 11:21:52;;;;;;;13.90;2.67;;;;;;;14.57;75.20;100503.16;5101300;28;20024;-73
2022/11/03 11:24:42;;;;;;;7.10;2.50;;;;;;;14.64;75.24;100507.19;5097686;28;20490;-73
2022/11/03 11:27:32;;;;;;;7.95;2.08;;;;;;;14.62;75.12;100499.41;5107785;28;20375;-73
2022/11/03 11:29:58;;;;;;;7.50;2.60;;;;;;;14.60;73.81;100476.78;5092730;28;20040;-73
2022/11/03 11:32:36;;;;;;;8.68;2.00;;;;;;;14.71;74.55;100483.25;5094438;28;20132;-73
2022/11/03 11:35:01;;;;;;;18.83;2.28;;;;;;;14.86;71.83;100465.09;5102581;28;20032;-73
2022/11/03 11:37:26;;;;;;;6.70;1.92;;;;;;;14.97;73.43;100449.66;5098609;28;20043;-73
2022/11/03 11:39:52;;;;;;;5.77;2.30;;;;;;;14.99;72.20;100450.44;5100475;28;20106;-74
2022/11/03 11:42:19;;;;;;;8.88;2.50;;;;;;;14.98;71.16;100439.09;5111859;28;20289;-73
2022/11/03 11:44:56;;;;;;;6.82;2.00;;;;;;;15.01;72.17;100442.50;5100937;28;20055;-73
2022/11/03 11:47:44;;;;;;;5.88;2.00;;;;;;;15.01;72.88;100424.13;5111247;28;20074;-73
2022/11/03 11:50:15;;;;;;;8.27;2.35;;;;;;;14.94;71.96;100415.69;5094105;28;20057;-73